Terminal Aerodrome Forecast
Issued by NWS Green Bay, WI

Home | Current Version | Previous Version | Text Only | Print | Product List | Glossary On
Versions: 1 2 3 4 5 6 7 8 9 10 11 12
000
FTUS43 KGRB 181720
TAFGRB
TAF
KGRB 181720Z 1818/1918 21014G22KT P6SM SKC
     FM182300 22011KT P6SM SCT200 WS020/24045KT
     FM190300 25007KT P6SM SKC WS020/26040KT
     FM190600 26006KT P6SM SKC=

USA.gov is the U.S. government's official web portal to all federal, state and local government web resources and services.